BHK weather

Bahía de Kino Airport
Bahia de Kino, Sonora, Mexico

Public forecast

Using degrees Celsius for public forecast. Weather courtesy of forecast.io.

Closest aviation weather report (METAR) to Bahía de Kino Airport

Closest report is General Ignacio P. Garcia International Airport, 50.8 nm (94.1 km) ENE. Retrieved 2020/01/22 22:40 UTC (0 seconds ago):

MMHO 222240Z 25006KT 10SM SKC 24/11 A3001 RMK ISOL CU

Closest aviation forecast (TAF) to Bahía de Kino Airport

Closest forecast is General Ignacio P. Garcia International Airport, 50.8 nm (94.1 km) ENE. Retrieved 2020/01/22 18:54 UTC (4 hours ago):

TAF MMHO 221652Z 2218/2318 25008KT P6SM SCT030 FM230200 30005KT P6SM SKC